Time;durP1;ratioP1;P1;durP2;ratioP2;P2;SDS_P1;SDS_P2;PMS_P1;PMS_P2;Temp;Humidity;BMP_temperature;BMP_pressure;BME280_temperature;BME280_humidity;BME280_pressure;Samples;Min_cycle;Max_cycle;Signal;HPM_P1;HPM_P2
2022/04/24 00:00:09;;;;;;;20.40;15.40;;;12.90;99.90;;;;;;5047071;28;20204;-69
2022/04/24 00:02:37;;;;;;;21.90;15.73;;;12.90;99.90;;;;;;5045756;28;20272;-69
2022/04/24 00:05:07;;;;;;;19.60;15.27;;;12.90;99.90;;;;;;5046064;28;20220;-69
2022/04/24 00:07:35;;;;;;;20.23;15.50;;;12.90;99.90;;;;;;5044504;28;20232;-69
2022/04/24 00:10:06;;;;;;;22.77;15.03;;;12.90;99.90;;;;;;5042782;28;20259;-69
2022/04/24 00:12:34;;;;;;;24.80;15.23;;;12.90;99.90;;;;;;5041118;28;20197;-69
2022/04/24 00:15:03;;;;;;;22.87;14.43;;;12.90;99.90;;;;;;5048266;28;20225;-69
2022/04/24 00:17:32;;;;;;;22.10;15.10;;;12.90;99.90;;;;;;5041604;28;20212;-69
2022/04/24 00:20:00;;;;;;;22.00;14.30;;;12.90;99.90;;;;;;5030964;28;20222;-69
2022/04/24 00:22:29;;;;;;;19.77;13.07;;;12.80;99.90;;;;;;5046024;28;20262;-69
2022/04/24 00:24:57;;;;;;;18.13;13.23;;;12.80;99.90;;;;;;5042682;28;20213;-69
2022/04/24 00:27:27;;;;;;;18.63;13.80;;;12.90;99.90;;;;;;5042785;28;20216;-69
2022/04/24 00:29:55;;;;;;;18.53;13.13;;;12.90;99.90;;;;;;5044791;28;20196;-69
2022/04/24 00:32:24;;;;;;;19.40;13.73;;;12.90;99.90;;;;;;5045133;28;20184;-69
2022/04/24 00:34:52;;;;;;;16.80;12.90;;;12.90;99.90;;;;;;5042850;28;20185;-69
2022/04/24 00:37:20;;;;;;;16.53;12.60;;;13.00;99.90;;;;;;5044471;28;20220;-69
2022/04/24 00:39:48;;;;;;;15.83;12.67;;;13.00;99.90;;;;;;5046390;28;20193;-69
2022/04/24 00:42:18;;;;;;;14.50;12.80;;;13.00;99.90;;;;;;5042877;28;20685;-69
2022/04/24 00:44:48;;;;;;;17.23;11.90;;;13.00;99.90;;;;;;5039593;28;20219;-69
2022/04/24 00:47:18;;;;;;;17.27;11.50;;;13.00;99.90;;;;;;5044569;28;20201;-69
2022/04/24 00:49:46;;;;;;;13.93;11.43;;;13.00;99.90;;;;;;5038339;28;20273;-69
2022/04/24 00:52:15;;;;;;;13.53;11.70;;;13.00;99.90;;;;;;5042435;28;20195;-69
2022/04/24 00:54:46;;;;;;;14.90;11.33;;;13.00;99.90;;;;;;5042635;28;20217;-69
2022/04/24 00:57:16;;;;;;;13.83;10.87;;;13.00;99.90;;;;;;5043216;28;20199;-69
2022/04/24 00:59:44;;;;;;;12.40;10.60;;;13.00;99.90;;;;;;5043632;28;20279;-69
2022/04/24 01:02:14;;;;;;;13.07;10.87;;;13.00;99.90;;;;;;5039502;28;20284;-69
2022/04/24 01:04:42;;;;;;;15.63;11.43;;;12.90;99.90;;;;;;5041847;28;20209;-68
2022/04/24 01:07:12;;;;;;;14.77;11.33;;;12.90;99.90;;;;;;5041313;28;20196;-69
2022/04/24 01:09:40;;;;;;;13.43;10.30;;;12.90;99.90;;;;;;5041708;28;20211;-69
2022/04/24 01:12:09;;;;;;;12.90;10.10;;;12.90;99.90;;;;;;5041446;28;20292;-69
2022/04/24 01:14:37;;;;;;;14.10;10.03;;;12.80;99.90;;;;;;5038588;28;20676;-69
2022/04/24 01:17:07;;;;;;;12.13;9.97;;;12.80;99.90;;;;;;5043379;28;20273;-69
2022/04/24 01:19:37;;;;;;;12.33;10.00;;;12.70;99.90;;;;;;5046208;28;20614;-69
2022/04/24 01:22:07;;;;;;;14.37;9.93;;;12.70;99.90;;;;;;5042327;28;20197;-68
2022/04/24 01:24:35;;;;;;;11.77;9.57;;;12.70;99.90;;;;;;5045819;28;20287;-68
2022/04/24 01:27:04;;;;;;;12.33;9.10;;;12.70;99.90;;;;;;5043656;28;20283;-69
2022/04/24 01:29:33;;;;;;;12.67;9.37;;;12.70;99.90;;;;;;5044303;28;20227;-68
2022/04/24 01:32:01;;;;;;;18.17;9.23;;;12.70;99.90;;;;;;5025346;28;20224;-68
2022/04/24 01:34:29;;;;;;;9.50;8.50;;;12.80;99.90;;;;;;5043227;28;20225;-69
2022/04/24 01:36:57;;;;;;;14.13;8.50;;;12.80;99.90;;;;;;5041437;28;20667;-69
2022/04/24 01:39:27;;;;;;;9.03;7.90;;;12.80;99.90;;;;;;5044515;28;20543;-68
2022/04/24 01:41:56;;;;;;;9.50;8.50;;;12.80;99.90;;;;;;5039954;28;20200;-69
2022/04/24 01:44:24;;;;;;;13.70;8.10;;;12.90;99.90;;;;;;5043227;28;20735;-69
2022/04/24 01:46:53;;;;;;;8.60;7.80;;;12.90;99.90;;;;;;5041428;28;20232;-69
2022/04/24 01:49:22;;;;;;;8.57;7.53;;;12.90;99.90;;;;;;5047215;28;20207;-69
2022/04/24 01:51:50;;;;;;;8.40;7.50;;;12.80;99.90;;;;;;5048569;28;20350;-68
2022/04/24 01:54:18;;;;;;;8.47;7.60;;;12.80;99.90;;;;;;5048759;28;20215;-69
2022/04/24 01:56:48;;;;;;;10.07;6.83;;;12.80;99.90;;;;;;5044591;28;20558;-69
2022/04/24 01:59:16;;;;;;;8.10;7.20;;;12.80;99.90;;;;;;5042207;28;20192;-69
2022/04/24 02:01:45;;;;;;;8.87;6.90;;;12.80;99.90;;;;;;5045738;28;20203;-69
2022/04/24 02:04:13;;;;;;;9.37;6.70;;;12.80;99.90;;;;;;5043246;28;20698;-69
2022/04/24 02:06:42;;;;;;;7.03;6.33;;;12.90;99.90;;;;;;5045993;28;20586;-69
2022/04/24 02:09:10;;;;;;;7.70;6.13;;;12.90;99.90;;;;;;5049304;28;20220;-69
2022/04/24 02:11:38;;;;;;;7.83;6.20;;;12.90;99.90;;;;;;5047349;28;20232;-68
2022/04/24 02:14:08;;;;;;;10.37;6.53;;;12.90;99.90;;;;;;5031722;28;20201;-69
2022/04/24 02:16:36;;;;;;;7.33;6.60;;;12.80;99.90;;;;;;5049296;28;20205;-68
2022/04/24 02:19:05;;;;;;;8.53;6.57;;;12.70;99.90;;;;;;5050245;28;20188;-69
2022/04/24 02:21:33;;;;;;;6.73;6.13;;;12.60;99.90;;;;;;5043182;28;20279;-69
2022/04/24 02:24:02;;;;;;;7.47;6.70;;;12.60;99.90;;;;;;5049187;28;20206;-69
2022/04/24 02:26:30;;;;;;;6.90;6.20;;;12.50;99.90;;;;;;5049883;28;20557;-69
2022/04/24 02:28:58;;;;;;;8.20;6.10;;;12.50;99.90;;;;;;5048355;28;20197;-69
2022/04/24 02:31:28;;;;;;;6.63;6.03;;;12.40;99.90;;;;;;5046318;28;20220;-69
2022/04/24 02:33:56;;;;;;;6.33;5.80;;;12.30;99.90;;;;;;5044300;28;20229;-69
2022/04/24 02:36:25;;;;;;;6.50;5.90;;;12.30;99.90;;;;;;5044059;28;20197;-69
2022/04/24 02:38:53;;;;;;;6.80;6.20;;;12.20;99.90;;;;;;5048951;28;20701;-69
2022/04/24 02:41:21;;;;;;;7.60;6.23;;;12.10;99.90;;;;;;5046126;28;20598;-69
2022/04/24 02:43:49;;;;;;;7.00;6.30;;;12.00;99.90;;;;;;5060828;28;20387;-68
2022/04/24 02:46:17;;;;;;;6.73;6.10;;;12.00;99.90;;;;;;5053859;28;20256;-68
2022/04/24 02:48:47;;;;;;;7.40;6.30;;;11.90;99.90;;;;;;5047648;28;20726;-69
2022/04/24 02:51:15;;;;;;;10.23;5.83;;;11.80;99.90;;;;;;5048773;28;20295;-68
2022/04/24 02:53:44;;;;;;;7.23;6.37;;;11.80;99.90;;;;;;5046799;28;20311;-69
2022/04/24 02:56:12;;;;;;;6.73;5.83;;;11.80;99.90;;;;;;5049320;28;20216;-68
2022/04/24 02:58:40;;;;;;;7.10;6.50;;;11.70;99.90;;;;;;5048058;28;20271;-69
2022/04/24 03:01:09;;;;;;;6.77;6.13;;;11.60;99.90;;;;;;5043693;28;20197;-68
2022/04/24 03:03:38;;;;;;;7.57;6.27;;;11.50;99.90;;;;;;5044139;28;20201;-68
2022/04/24 03:06:08;;;;;;;7.97;5.90;;;11.50;99.90;;;;;;5046570;28;20308;-68
2022/04/24 03:08:37;;;;;;;7.13;6.47;;;11.40;99.90;;;;;;5045877;28;20200;-68
2022/04/24 03:11:05;;;;;;;7.00;6.30;;;11.30;99.90;;;;;;5049072;28;20236;-68
2022/04/24 03:13:34;;;;;;;7.57;5.90;;;11.20;99.90;;;;;;5046436;28;20731;-68
2022/04/24 03:16:02;;;;;;;8.67;6.50;;;11.20;99.90;;;;;;5050130;28;20663;-69
2022/04/24 03:18:30;;;;;;;7.37;6.67;;;11.10;99.90;;;;;;5048300;28;20201;-68
2022/04/24 03:20:59;;;;;;;7.67;6.33;;;11.10;99.90;;;;;;5044984;28;20240;-68
2022/04/24 03:23:28;;;;;;;8.20;6.80;;;11.00;99.90;;;;;;5044983;28;20232;-68
2022/04/24 03:25:57;;;;;;;7.83;6.80;;;11.00;99.90;;;;;;5045758;28;20825;-68
2022/04/24 03:28:25;;;;;;;7.83;6.70;;;11.00;99.90;;;;;;5046185;28;20199;-68
2022/04/24 03:30:53;;;;;;;7.97;7.17;;;10.90;99.90;;;;;;5048250;28;20902;-69
2022/04/24 03:33:20;;;;;;;9.93;7.43;;;10.80;99.90;;;;;;5046307;28;20240;-68
2022/04/24 03:35:49;;;;;;;7.67;7.00;;;10.80;99.90;;;;;;5046618;28;20196;-67
2022/04/24 03:38:17;;;;;;;7.50;6.80;;;10.80;99.90;;;;;;5044456;28;20280;-68
2022/04/24 03:40:46;;;;;;;10.90;6.73;;;10.70;99.90;;;;;;5044157;28;20272;-68
2022/04/24 03:43:15;;;;;;;7.83;7.03;;;10.70;99.90;;;;;;5047473;28;20205;-67
2022/04/24 03:45:43;;;;;;;7.43;6.43;;;10.70;99.90;;;;;;5047786;28;20923;-67
2022/04/24 03:48:11;;;;;;;7.87;7.07;;;10.70;99.90;;;;;;5044132;28;20820;-67
2022/04/24 03:50:40;;;;;;;7.77;6.77;;;10.70;99.90;;;;;;5043606;28;20197;-68
2022/04/24 03:53:09;;;;;;;8.47;7.33;;;10.80;99.90;;;;;;5043183;28;20194;-67
2022/04/24 03:55:37;;;;;;;7.43;6.63;;;10.80;99.90;;;;;;5046456;28;20224;-67
2022/04/24 03:58:07;;;;;;;8.07;7.27;;;10.80;99.90;;;;;;5045241;28;20215;-68
2022/04/24 04:00:36;;;;;;;7.70;7.00;;;10.90;99.90;;;;;;5046216;28;20270;-67
2022/04/24 04:03:13;;;;;;;8.00;7.20;;;10.90;99.90;;;;;;5051117;28;20205;-68
2022/04/24 04:05:42;;;;;;;7.60;6.90;;;10.90;99.90;;;;;;5045866;28;20201;-67
2022/04/24 04:08:10;;;;;;;7.87;7.10;;;10.90;99.90;;;;;;5045952;28;20203;-68
2022/04/24 04:10:38;;;;;;;7.53;6.83;;;10.90;99.90;;;;;;5043681;28;20236;-67
2022/04/24 04:13:09;;;;;;;7.47;6.47;;;10.90;99.90;;;;;;5043228;28;20267;-68
2022/04/24 04:15:38;;;;;;;7.30;6.60;;;10.90;99.90;;;;;;5041375;28;20271;-68
2022/04/24 04:18:06;;;;;;;8.90;6.57;;;11.00;99.90;;;;;;5046536;28;20304;-67
2022/04/24 04:20:34;;;;;;;7.40;6.70;;;11.00;99.90;;;;;;5045347;28;20554;-68
2022/04/24 04:23:03;;;;;;;7.60;6.80;;;11.10;99.90;;;;;;5037720;28;20275;-68
2022/04/24 04:25:32;;;;;;;7.60;6.87;;;11.10;99.90;;;;;;5047974;28;20638;-68
2022/04/24 04:28:00;;;;;;;7.23;6.53;;;11.10;99.90;;;;;;5042760;28;20743;-67
2022/04/24 04:30:29;;;;;;;7.47;6.77;;;11.20;99.90;;;;;;5045239;28;20198;-67
2022/04/24 04:32:58;;;;;;;7.37;6.67;;;11.20;99.90;;;;;;5045623;28;20229;-68
2022/04/24 04:35:26;;;;;;;8.00;6.43;;;11.30;99.90;;;;;;5047372;28;20727;-68
2022/04/24 04:37:55;;;;;;;7.67;6.53;;;11.30;99.90;;;;;;5040308;28;20219;-67
2022/04/24 04:40:23;;;;;;;7.50;6.80;;;11.40;99.90;;;;;;5040296;28;20620;-67
2022/04/24 04:42:51;;;;;;;8.03;6.87;;;11.40;99.90;;;;;;5046618;28;20228;-67
2022/04/24 04:45:20;;;;;;;6.97;6.27;;;11.50;99.90;;;;;;5044797;28;20658;-67
2022/04/24 04:47:50;;;;;;;8.37;6.20;;;11.50;99.90;;;;;;5044923;28;20221;-67
2022/04/24 04:50:18;;;;;;;7.50;6.80;;;11.50;99.90;;;;;;5043018;28;20275;-67
2022/04/24 04:52:46;;;;;;;7.60;6.90;;;11.50;99.90;;;;;;5030743;28;20223;-68
2022/04/24 04:55:15;;;;;;;7.80;7.00;;;11.60;99.90;;;;;;5041646;28;20659;-68
2022/04/24 04:57:44;;;;;;;7.60;6.73;;;11.60;99.90;;;;;;5044526;28;20688;-67
2022/04/24 05:00:14;;;;;;;7.20;6.60;;;11.60;99.90;;;;;;5043473;28;20646;-67
2022/04/24 05:02:43;;;;;;;7.70;7.10;;;11.60;99.90;;;;;;5043384;28;20193;-67
2022/04/24 05:05:13;;;;;;;7.80;6.80;;;11.60;99.90;;;;;;5046351;28;20200;-67
2022/04/24 05:07:41;;;;;;;8.03;6.70;;;11.60;99.90;;;;;;5041648;28;20308;-67
2022/04/24 05:10:10;;;;;;;7.27;6.57;;;11.70;99.90;;;;;;5043705;28;20650;-67
2022/04/24 05:12:38;;;;;;;7.70;6.97;;;11.70;99.90;;;;;;5046501;28;20714;-67
2022/04/24 05:15:08;;;;;;;7.37;6.77;;;11.70;99.90;;;;;;5043023;28;20195;-68
2022/04/24 05:17:37;;;;;;;8.27;7.43;;;11.70;99.90;;;;;;5043724;28;20673;-67
2022/04/24 05:20:07;;;;;;;7.40;6.70;;;11.70;99.90;;;;;;5044115;28;20211;-68
2022/04/24 05:22:38;;;;;;;7.80;7.13;;;11.80;99.90;;;;;;5042745;28;20216;-67
2022/04/24 05:25:09;;;;;;;7.40;6.77;;;11.80;99.90;;;;;;5046380;28;20674;-67
2022/04/24 05:27:37;;;;;;;7.73;7.00;;;11.70;99.90;;;;;;5051001;28;20219;-67
2022/04/24 05:30:08;;;;;;;7.40;6.70;;;11.80;99.90;;;;;;5044183;28;20291;-68
2022/04/24 05:32:40;;;;;;;7.30;6.57;;;11.80;99.90;;;;;;5047445;28;20205;-67
2022/04/24 05:35:09;;;;;;;7.57;6.87;;;11.80;99.90;;;;;;5045557;28;20200;-67
2022/04/24 05:37:40;;;;;;;7.17;6.57;;;11.90;99.90;;;;;;5047446;28;20196;-67
2022/04/24 05:40:09;;;;;;;7.27;6.67;;;11.90;99.90;;;;;;5045789;28;20685;-68
2022/04/24 05:42:45;;;;;;;8.93;7.03;;;11.90;99.90;;;;;;5049645;28;20262;-67
2022/04/24 05:45:15;;;;;;;7.40;6.73;;;11.90;99.90;;;;;;5048538;28;20291;-67
2022/04/24 05:47:44;;;;;;;7.97;7.17;;;11.90;99.90;;;;;;5046738;28;20287;-67
2022/04/24 05:50:12;;;;;;;7.63;6.93;;;11.90;99.90;;;;;;5044413;28;20288;-67
2022/04/24 05:52:42;;;;;;;8.03;7.37;;;11.90;99.90;;;;;;5050981;28;20228;-67
2022/04/24 05:55:11;;;;;;;7.50;6.80;;;11.90;99.90;;;;;;5042827;28;20279;-68
2022/04/24 05:57:40;;;;;;;7.77;7.07;;;11.90;99.90;;;;;;5046596;28;20200;-68
2022/04/24 06:00:10;;;;;;;7.87;7.27;;;11.90;99.90;;;;;;5045594;28;20292;-68
2022/04/24 06:02:39;;;;;;;11.17;7.83;;;11.90;99.90;;;;;;5037229;28;20250;-67
2022/04/24 06:05:08;;;;;;;8.00;7.20;;;12.00;99.90;;;;;;5048078;28;20193;-67
2022/04/24 06:07:37;;;;;;;7.93;7.23;;;12.00;99.90;;;;;;5043340;28;20283;-68
2022/04/24 06:10:08;;;;;;;8.40;7.60;;;12.10;99.90;;;;;;5045794;28;20713;-67
2022/04/24 06:12:45;;;;;;;8.93;7.80;;;12.30;99.90;;;;;;5048206;28;20200;-67
2022/04/24 06:15:15;;;;;;;8.27;7.47;;;12.50;99.90;;;;;;5046746;28;20273;-68
2022/04/24 06:17:46;;;;;;;9.13;6.80;;;12.70;99.90;;;;;;5047500;28;20193;-67
2022/04/24 06:20:15;;;;;;;8.67;7.90;;;12.90;99.90;;;;;;5044199;28;20181;-67
2022/04/24 06:22:44;;;;;;;8.27;7.50;;;13.10;99.90;;;;;;5043362;28;20262;-67
2022/04/24 06:25:17;;;;;;;8.37;7.53;;;13.50;99.90;;;;;;5043944;28;20203;-67
2022/04/24 06:27:47;;;;;;;11.17;7.93;;;13.70;99.90;;;;;;5046797;28;20642;-68
2022/04/24 06:30:16;;;;;;;8.23;7.53;;;14.00;99.90;;;;;;5044320;28;20200;-67
2022/04/24 06:32:45;;;;;;;8.17;7.37;;;14.20;99.90;;;;;;5041574;28;20304;-67
2022/04/24 06:35:16;;;;;;;8.73;7.57;;;14.30;99.90;;;;;;5046218;28;20193;-67
2022/04/24 06:37:46;;;;;;;8.80;8.00;;;14.30;99.90;;;;;;5045111;28;20544;-67
2022/04/24 06:40:19;;;;;;;9.03;8.13;;;14.30;99.90;;;;;;5039920;28;20262;-68
2022/04/24 06:42:53;;;;;;;9.70;7.90;;;14.30;99.90;;;;;;5043087;28;20190;-67
2022/04/24 06:45:25;;;;;;;9.17;8.00;;;14.30;99.90;;;;;;5041781;28;20200;-67
2022/04/24 06:47:54;;;;;;;8.90;8.10;;;14.40;99.90;;;;;;5045380;28;20228;-68
2022/04/24 06:50:24;;;;;;;9.07;8.27;;;14.40;99.90;;;;;;5041393;28;20283;-69
2022/04/24 06:52:59;;;;;;;8.70;7.80;;;14.40;99.90;;;;;;5046367;28;20205;-68
2022/04/24 06:55:31;;;;;;;8.97;8.07;;;14.60;99.90;;;;;;5042473;28;20262;-68
2022/04/24 06:58:01;;;;;;;8.73;7.93;;;14.70;99.90;;;;;;5045676;28;20206;-67
2022/04/24 07:00:31;;;;;;;9.23;8.43;;;14.80;99.90;;;;;;5046422;28;20285;-67
2022/04/24 07:03:21;;;;;;;10.20;8.20;;;14.80;99.90;;;;;;5047477;28;20208;-67
2022/04/24 07:05:53;;;;;;;8.50;7.80;;;14.70;99.90;;;;;;5045739;28;20198;-68
2022/04/24 07:08:24;;;;;;;8.90;8.07;;;14.80;99.90;;;;;;5050583;28;20212;-68
2022/04/24 07:10:54;;;;;;;9.00;8.30;;;14.90;99.90;;;;;;5040114;28;20220;-68
2022/04/24 07:13:22;;;;;;;9.03;8.23;;;15.10;99.90;;;;;;5045318;28;20189;-68
2022/04/24 07:15:51;;;;;;;8.77;8.03;;;15.20;99.90;;;;;;5045013;28;20225;-68
2022/04/24 07:18:20;;;;;;;9.30;8.50;;;15.30;99.90;;;;;;5047464;28;20197;-68
2022/04/24 07:20:48;;;;;;;8.67;7.87;;;15.50;99.90;;;;;;5048896;28;20197;-69
2022/04/24 07:23:17;;;;;;;8.70;7.80;;;15.60;99.90;;;;;;5045708;28;20220;-68
2022/04/24 07:25:46;;;;;;;9.30;8.40;;;15.40;99.90;;;;;;5040205;28;20204;-68
2022/04/24 07:28:19;;;;;;;10.87;8.60;;;15.20;99.90;;;;;;5042993;28;20216;-69
2022/04/24 07:30:47;;;;;;;9.43;8.53;;;15.40;99.90;;;;;;5045371;28;20251;-69
2022/04/24 07:33:16;;;;;;;11.23;8.40;;;15.60;99.90;;;;;;5061931;28;20662;-69
2022/04/24 07:35:44;;;;;;;9.03;8.23;;;15.50;99.90;;;;;;5044615;28;20198;-69
2022/04/24 07:38:12;;;;;;;9.17;8.37;;;15.70;99.90;;;;;;5043946;28;20247;-69
2022/04/24 07:40:41;;;;;;;9.73;8.87;;;15.80;99.90;;;;;;5039781;28;20205;-69
2022/04/24 07:43:11;;;;;;;9.13;8.23;;;15.70;99.90;;;;;;5037165;28;20196;-69
2022/04/24 07:45:42;;;;;;;9.43;8.53;;;15.70;99.90;;;;;;5037691;28;20726;-68
2022/04/24 07:48:12;;;;;;;9.67;8.83;;;15.90;99.90;;;;;;5033067;28;20232;-69
2022/04/24 07:50:41;;;;;;;9.80;8.90;;;16.00;99.90;;;;;;5044508;28;20201;-69
2022/04/24 07:53:11;;;;;;;10.80;8.03;;;16.20;99.90;;;;;;5042694;28;20617;-69
2022/04/24 07:55:41;;;;;;;9.50;8.70;;;16.30;99.90;;;;;;5037381;28;20202;-69
2022/04/24 07:58:10;;;;;;;10.67;9.03;;;16.10;99.90;;;;;;5029765;28;20282;-68
2022/04/24 08:00:40;;;;;;;9.80;8.80;;;16.40;99.90;;;;;;5044727;28;20220;-69
2022/04/24 08:03:09;;;;;;;9.70;8.80;;;16.80;99.90;;;;;;5045673;28;20678;-69
2022/04/24 08:05:40;;;;;;;9.83;8.80;;;17.00;99.90;;;;;;5043014;28;20201;-69
2022/04/24 08:08:10;;;;;;;8.70;7.80;;;17.20;99.90;;;;;;5031636;28;20201;-69
2022/04/24 08:10:41;;;;;;;8.63;7.87;;;17.20;99.90;;;;;;5044748;28;20292;-69
2022/04/24 08:13:10;;;;;;;9.37;8.57;;;17.40;99.90;;;;;;5042879;28;20211;-69
2022/04/24 08:15:44;;;;;;;8.77;8.07;;;17.60;99.90;;;;;;5044309;28;20254;-69
2022/04/24 08:18:13;;;;;;;9.13;8.43;;;17.70;99.90;;;;;;5036466;28;20200;-69
2022/04/24 08:20:43;;;;;;;9.10;8.30;;;17.90;99.90;;;;;;5042736;28;20693;-69
2022/04/24 08:23:12;;;;;;;8.47;7.73;;;18.20;99.90;;;;;;5036045;28;20197;-68
2022/04/24 08:25:40;;;;;;;9.80;8.80;;;18.40;99.90;;;;;;5043883;28;20318;-69
2022/04/24 08:28:10;;;;;;;10.00;8.37;;;18.50;99.90;;;;;;5035071;28;20760;-68
2022/04/24 08:30:41;;;;;;;9.07;8.27;;;18.60;99.90;;;;;;5040912;28;20287;-69
2022/04/24 08:33:12;;;;;;;10.23;8.87;;;18.70;99.90;;;;;;5036732;28;20234;-68
2022/04/24 08:35:40;;;;;;;9.03;8.03;;;18.90;99.90;;;;;;5044334;28;20206;-69
2022/04/24 08:38:09;;;;;;;9.77;8.00;;;19.20;99.90;;;;;;5042037;28;20229;-70
2022/04/24 08:40:37;;;;;;;8.80;8.10;;;19.40;99.90;;;;;;5038640;28;20553;-71
2022/04/24 08:43:06;;;;;;;8.57;7.87;;;19.70;99.90;;;;;;5041553;28;20215;-72
2022/04/24 08:45:34;;;;;;;8.43;7.63;;;20.20;99.90;;;;;;5045309;28;20278;-68
2022/04/24 08:48:04;;;;;;;9.10;8.20;;;20.30;99.90;;;;;;5042459;28;20193;-70
2022/04/24 08:50:34;;;;;;;8.80;8.00;;;20.60;99.90;;;;;;5043234;28;20644;-69
2022/04/24 08:53:02;;;;;;;8.97;8.17;;;20.80;99.90;;;;;;5042568;28;20200;-71
2022/04/24 08:55:32;;;;;;;8.77;7.80;;;21.10;99.90;;;;;;5045530;28;20193;-72
2022/04/24 08:58:01;;;;;;;9.53;8.60;;;21.30;99.90;;;;;;5043652;28;20196;-71
2022/04/24 09:00:30;;;;;;;10.77;8.03;;;21.30;99.90;;;;;;5047181;28;20605;-72
2022/04/24 09:02:59;;;;;;;8.57;7.77;;;21.30;99.90;;;;;;5044233;28;20621;-71
2022/04/24 09:05:30;;;;;;;11.10;8.10;;;21.40;99.90;;;;;;5044899;28;20666;-71
2022/04/24 09:08:09;;;;;;;8.73;7.83;;;21.70;99.90;;;;;;5037166;28;20562;-71
2022/04/24 09:10:59;;;;;;;8.53;7.77;;;21.70;99.90;;;;;;5039917;28;20197;-71
2022/04/24 09:13:30;;;;;;;8.50;7.70;;;22.00;99.90;;;;;;5044451;28;20208;-71
2022/04/24 09:16:00;;;;;;;8.97;7.90;;;22.10;99.90;;;;;;5046204;28;20291;-72
2022/04/24 09:18:39;;;;;;;12.73;7.50;;;22.40;99.90;;;;;;5043762;28;20754;-71
2022/04/24 09:21:07;;;;;;;8.27;7.50;;;22.50;99.90;;;;;;5044872;28;20229;-71
2022/04/24 09:23:38;;;;;;;8.53;7.83;;;22.50;99.90;;;;;;5040727;28;20733;-71
2022/04/24 09:26:06;;;;;;;8.45;7.75;;;22.50;99.90;;;;;;5041460;28;20761;-71
2022/04/24 09:28:38;;;;;;;7.67;7.07;;;23.10;99.90;;;;;;5045454;28;20660;-71
2022/04/24 09:31:07;;;;;;;8.27;7.47;;;23.20;99.50;;;;;;5043827;28;20275;-72
2022/04/24 09:33:37;;;;;;;9.10;7.53;;;23.10;99.70;;;;;;5045061;28;20307;-71
2022/04/24 09:36:06;;;;;;;8.25;7.60;;;22.70;99.60;;;;;;5044906;28;20220;-72
2022/04/24 09:38:42;;;;;;;8.13;7.50;;;22.90;99.60;;;;;;5042431;28;20201;-72
2022/04/24 09:41:19;;;;;;;8.63;7.83;;;22.90;99.30;;;;;;5043471;28;20301;-72
2022/04/24 09:43:48;;;;;;;10.00;7.63;;;23.30;99.20;;;;;;5035978;28;20193;-68
2022/04/24 09:46:26;;;;;;;8.73;7.47;;;23.70;98.70;;;;;;5041973;28;20189;-68
2022/04/24 09:48:57;;;;;;;7.80;7.20;;;23.80;98.30;;;;;;5041451;28;20211;-68
2022/04/24 09:51:26;;;;;;;8.63;6.95;;;24.20;97.80;;;;;;5042021;28;20217;-68
2022/04/24 09:53:59;;;;;;;10.80;8.07;;;24.40;97.90;;;;;;5039611;28;20587;-69
2022/04/24 09:56:28;;;;;;;8.82;7.63;;;24.60;97.20;;;;;;5035076;28;20196;-69
2022/04/24 09:58:58;;;;;;;9.52;7.30;;;24.50;97.10;;;;;;5033774;28;20326;-68
2022/04/24 10:01:27;;;;;;;8.02;7.20;;;24.50;97.30;;;;;;5035198;28;20191;-69
2022/04/24 10:04:36;;;;;;;7.93;6.88;;;25.00;96.60;;;;;;5042855;28;20267;-68
2022/04/24 10:07:43;;;;;;;8.05;7.30;;;25.30;95.50;;;;;;5030303;28;20608;-68
2022/04/24 10:10:16;;;;;;;7.35;6.75;;;24.80;95.50;;;;;;5039097;28;20276;-70
2022/04/24 10:12:48;;;;;;;6.97;6.47;;;25.00;95.70;;;;;;5051597;28;20202;-70
2022/04/24 10:15:18;;;;;;;7.20;6.57;;;25.10;95.40;;;;;;5044304;28;20296;-70
2022/04/24 10:18:10;;;;;;;6.97;6.28;;;25.20;95.30;;;;;;5041416;28;20287;-70
2022/04/24 10:20:53;;;;;;;7.32;6.60;;;25.10;95.10;;;;;;5042470;28;20221;-70
2022/04/24 10:23:29;;;;;;;6.88;6.18;;;25.20;94.90;;;;;;5047895;28;20203;-69
2022/04/24 10:26:03;;;;;;;7.47;6.72;;;25.10;94.60;;;;;;5044988;28;20291;-69
2022/04/24 10:28:38;;;;;;;6.82;6.30;;;25.30;94.90;;;;;;5045107;28;20203;-69
2022/04/24 10:31:09;;;;;;;7.50;6.80;;;25.40;94.40;;;;;;5048918;28;20225;-69
2022/04/24 10:33:39;;;;;;;8.02;7.22;;;25.30;94.90;;;;;;5040081;28;20265;-69
2022/04/24 10:36:14;;;;;;;8.27;7.20;;;25.80;94.50;;;;;;5039109;28;20203;-69
2022/04/24 10:38:50;;;;;;;7.55;6.40;;;25.80;94.50;;;;;;5042780;28;20301;-69
2022/04/24 10:41:40;;;;;;;6.57;5.97;;;25.70;93.70;;;;;;5040102;28;20208;-70
2022/04/24 10:44:12;;;;;;;6.80;6.30;;;26.10;93.50;;;;;;5034474;28;20192;-70
2022/04/24 10:46:42;;;;;;;6.00;5.60;;;25.80;92.80;;;;;;5040990;28;20286;-70
2022/04/24 10:49:12;;;;;;;7.13;6.55;;;26.00;93.50;;;;;;5040554;28;20229;-70
2022/04/24 10:51:42;;;;;;;7.63;7.03;;;25.60;93.00;;;;;;5041627;28;20223;-69
2022/04/24 10:54:13;;;;;;;7.15;5.95;;;25.60;92.70;;;;;;5046077;28;20291;-70
2022/04/24 10:56:49;;;;;;;6.63;6.13;;;25.50;93.10;;;;;;5041393;28;20197;-70
2022/04/24 10:59:19;;;;;;;7.07;6.38;;;25.50;92.90;;;;;;5045435;28;20201;-70
2022/04/24 11:01:51;;;;;;;6.50;5.90;;;25.10;94.20;;;;;;5042676;28;20287;-70
2022/04/24 11:04:21;;;;;;;9.32;7.07;;;25.40;93.40;;;;;;5039945;28;20798;-70
2022/04/24 11:06:54;;;;;;;7.20;6.50;;;25.50;92.50;;;;;;5042705;28;20197;-69
2022/04/24 11:09:23;;;;;;;7.30;6.60;;;25.10;92.50;;;;;;5041727;28;20207;-70
2022/04/24 11:11:58;;;;;;;8.43;7.30;;;25.30;92.80;;;;;;5042240;28;20292;-70
2022/04/24 11:14:29;;;;;;;8.93;6.40;;;24.90;92.90;;;;;;5037993;28;20200;-69
2022/04/24 11:16:58;;;;;;;5.90;5.50;;;24.70;92.60;;;;;;5043965;28;20208;-69
2022/04/24 11:19:28;;;;;;;5.60;5.30;;;24.00;91.50;;;;;;5040433;28;20202;-69
2022/04/24 11:21:57;;;;;;;5.60;5.10;;;23.90;93.00;;;;;;5028237;28;20199;-70
2022/04/24 11:24:27;;;;;;;7.10;5.93;;;24.30;93.30;;;;;;5042569;28;20280;-69
2022/04/24 11:26:58;;;;;;;6.27;5.63;;;24.50;92.00;;;;;;5043568;28;20197;-69
2022/04/24 11:29:26;;;;;;;7.47;5.87;;;24.50;92.90;;;;;;5047431;28;20185;-68
2022/04/24 11:31:55;;;;;;;5.87;5.47;;;24.20;92.40;;;;;;5045943;28;20201;-69
2022/04/24 11:34:25;;;;;;;5.63;5.27;;;24.00;92.30;;;;;;5041139;28;20229;-70
2022/04/24 11:36:57;;;;;;;6.40;5.80;;;24.10;92.60;;;;;;5044819;28;20205;-70
2022/04/24 11:39:26;;;;;;;5.90;5.50;;;24.40;93.00;;;;;;5042668;28;20199;-69
2022/04/24 11:41:55;;;;;;;5.93;5.30;;;24.60;92.70;;;;;;5042125;28;20203;-69
2022/04/24 11:50:16;;;;;;;5.60;5.30;;;23.30;91.80;;;;;;5039679;28;20217;-69
2022/04/24 11:53:05;;;;;;;6.47;5.07;;;23.20;92.30;;;;;;5041233;28;20198;-69
2022/04/24 11:58:16;;;;;;;5.50;5.00;;;23.00;92.10;;;;;;5041186;28;20263;-69
2022/04/24 12:00:46;;;;;;;6.73;4.87;;;22.90;91.00;;;;;;5041329;28;20554;-69
2022/04/24 12:03:15;;;;;;;4.30;4.10;;;22.60;91.70;;;;;;5039151;28;20214;-69
2022/04/24 12:05:44;;;;;;;7.20;5.00;;;22.70;91.20;;;;;;5034411;28;20197;-69
2022/04/24 12:08:13;;;;;;;6.47;4.90;;;23.00;91.40;;;;;;5035818;28;20200;-70
2022/04/24 12:10:44;;;;;;;5.77;5.00;;;23.20;91.90;;;;;;5044604;28;20624;-70
2022/04/24 12:13:15;;;;;;;5.20;4.80;;;23.30;91.60;;;;;;5039412;28;20230;-69
2022/04/24 12:15:52;;;;;;;6.30;5.73;;;23.20;92.20;;;;;;5044890;28;20203;-69
2022/04/24 12:18:23;;;;;;;5.43;5.13;;;23.30;92.50;;;;;;5043229;28;20197;-69
2022/04/24 12:20:52;;;;;;;5.73;5.20;;;23.00;91.50;;;;;;5043423;28;20240;-69
2022/04/24 12:23:22;;;;;;;4.90;4.60;;;22.80;92.10;;;;;;5044718;28;20270;-69
2022/04/24 12:25:53;;;;;;;5.70;5.30;;;23.00;91.80;;;;;;5043405;28;20262;-69
2022/04/24 12:28:32;;;;;;;5.37;4.97;;;23.30;91.50;;;;;;5039776;28;20262;-69
2022/04/24 12:31:03;;;;;;;4.90;4.60;;;23.30;91.80;;;;;;5045090;28;20243;-70
2022/04/24 12:33:33;;;;;;;5.20;4.80;;;23.40;91.00;;;;;;5041781;28;20232;-69
2022/04/24 12:36:08;;;;;;;5.30;4.90;;;23.00;90.10;;;;;;5034331;28;20203;-70
2022/04/24 12:38:37;;;;;;;5.53;5.03;;;22.70;90.10;;;;;;5044859;28;20617;-69
2022/04/24 12:41:10;;;;;;;7.00;5.07;;;22.40;90.60;;;;;;5038264;28;20228;-69
2022/04/24 12:43:39;;;;;;;6.73;5.20;;;22.50;92.40;;;;;;5038973;28;20201;-70
2022/04/24 12:46:08;;;;;;;5.77;5.23;;;22.70;90.40;;;;;;5037902;28;20193;-69
2022/04/24 12:48:46;;;;;;;7.00;6.00;;;22.50;90.70;;;;;;5038257;28;20231;-69
2022/04/24 12:51:15;;;;;;;7.40;6.20;;;23.20;92.30;;;;;;5039663;28;20708;-69
2022/04/24 12:53:44;;;;;;;6.70;6.13;;;22.80;92.00;;;;;;5037496;28;20193;-69
2022/04/24 12:56:13;;;;;;;6.77;6.07;;;22.50;92.40;;;;;;5040205;28;20247;-69
2022/04/24 12:58:44;;;;;;;6.53;5.97;;;22.20;92.30;;;;;;5037438;28;20197;-70
2022/04/24 13:01:14;;;;;;;5.97;5.43;;;22.20;91.70;;;;;;5044881;28;20288;-70
2022/04/24 13:03:46;;;;;;;5.60;5.10;;;22.50;91.70;;;;;;5018304;28;20251;-69
2022/04/24 13:06:16;;;;;;;7.27;6.03;;;22.40;91.30;;;;;;5038056;28;20204;-70